Time;durP1;ratioP1;P1;durP2;ratioP2;P2;SDS_P1;SDS_P2;PMS_P1;PMS_P2;Temp;Humidity;BMP_temperature;BMP_pressure;BME280_temperature;BME280_humidity;BME280_pressure;Samples;Min_cycle;Max_cycle;Signal;HPM_P1;HPM_P2
2023/05/06 00:00:47;;;;;;;43.00;21.52;;;;;;;;;;5024394;28;20033;-73
2023/05/06 00:03:12;;;;;;;35.78;20.13;;;;;;;;;;5013216;28;20030;-72
2023/05/06 00:05:37;;;;;;;32.28;18.17;;;;;;;;;;5037946;28;20026;-73
2023/05/06 00:08:05;;;;;;;29.73;17.98;;;;;;;;;;5021790;28;20137;-73
2023/05/06 00:10:32;;;;;;;25.05;17.38;;;;;;;;;;5015889;28;20105;-73
2023/05/06 00:12:58;;;;;;;28.95;17.70;;;;;;;;;;5014475;28;20079;-71
2023/05/06 00:15:23;;;;;;;28.88;17.73;;;;;;;;;;5018033;28;20434;-72
2023/05/06 00:17:50;;;;;;;32.97;19.42;;;;;;;;;;5042716;28;20032;-72
2023/05/06 00:20:16;;;;;;;30.65;18.70;;;;;;;;;;5009053;28;20034;-72
2023/05/06 00:22:41;;;;;;;36.20;20.80;;;;;;;;;;5016775;28;20103;-72
2023/05/06 00:25:07;;;;;;;36.30;20.13;;;;;;;;;;5032299;28;20064;-73
2023/05/06 00:27:33;;;;;;;31.90;19.42;;;;;;;;;;5029536;28;20080;-73
2023/05/06 00:29:58;;;;;;;37.85;19.65;;;;;;;;;;5026304;28;20032;-73
2023/05/06 00:32:23;;;;;;;32.90;19.42;;;;;;;;;;5049520;28;20026;-72
2023/05/06 00:34:49;;;;;;;34.45;19.88;;;;;;;;;;5012755;28;20026;-72
2023/05/06 00:37:14;;;;;;;33.35;20.92;;;;;;;;;;5025868;28;20036;-72
2023/05/06 00:39:42;;;;;;;35.42;21.67;;;;;;;;;;5021501;28;20033;-73
2023/05/06 00:42:10;;;;;;;36.17;21.02;;;;;;;;;;5023304;28;20022;-73
2023/05/06 00:44:35;;;;;;;38.88;21.55;;;;;;;;;;5021969;28;20038;-73
2023/05/06 00:47:00;;;;;;;36.92;21.58;;;;;;;;;;5022178;28;20041;-73
2023/05/06 00:49:26;;;;;;;39.72;20.95;;;;;;;;;;5020202;28;20040;-73
2023/05/06 00:51:57;;;;;;;37.03;21.13;;;;;;;;;;5050377;28;20029;-73
2023/05/06 00:54:26;;;;;;;32.08;20.17;;;;;;;;;;5016382;28;20029;-72
2023/05/06 00:56:54;;;;;;;30.55;18.85;;;;;;;;;;5016748;28;20030;-72
2023/05/06 00:59:20;;;;;;;30.13;18.80;;;;;;;;;;5026189;28;20033;-74
2023/05/06 01:01:46;;;;;;;27.05;18.20;;;;;;;;;;5018303;28;20040;-71
2023/05/06 01:04:11;;;;;;;39.40;19.80;;;;;;;;;;5019566;28;22185;-72
2023/05/06 01:06:54;;;;;;;30.30;18.75;;;;;;;;;;5015985;28;20060;-73
2023/05/06 01:09:21;;;;;;;38.17;21.20;;;;;;;;;;5022564;28;20030;-72
2023/05/06 01:11:52;;;;;;;32.50;20.15;;;;;;;;;;5053846;28;20068;-72
2023/05/06 01:14:24;;;;;;;35.97;20.23;;;;;;;;;;5036503;28;20035;-71
2023/05/06 01:16:52;;;;;;;36.70;20.73;;;;;;;;;;5038330;28;20067;-71
2023/05/06 01:19:35;;;;;;;39.10;22.02;;;;;;;;;;5023104;28;20049;-72
2023/05/06 01:22:03;;;;;;;44.20;24.35;;;;;;;;;;5018356;28;20088;-73
2023/05/06 01:24:39;;;;;;;42.40;24.25;;;;;;;;;;5038882;28;20065;-72
2023/05/06 01:27:04;;;;;;;48.20;24.40;;;;;;;;;;5017369;28;20041;-72
2023/05/06 01:29:29;;;;;;;44.97;23.70;;;;;;;;;;5061298;28;20438;-72
2023/05/06 01:31:56;;;;;;;47.25;23.70;;;;;;;;;;5015180;28;20108;-74
2023/05/06 01:34:41;;;;;;;46.95;25.30;;;;;;;;;;5042361;28;22779;-72
2023/05/06 01:37:15;;;;;;;44.58;24.45;;;;;;;;;;5039666;28;20034;-72
2023/05/06 01:39:40;;;;;;;42.08;24.58;;;;;;;;;;5031418;28;20038;-73
2023/05/06 01:42:07;;;;;;;41.53;24.23;;;;;;;;;;5034945;28;20032;-73
2023/05/06 01:44:32;;;;;;;41.00;24.55;;;;;;;;;;5029535;28;20033;-72
2023/05/06 01:46:59;;;;;;;39.90;24.13;;;;;;;;;;5039904;28;20029;-72
2023/05/06 01:49:27;;;;;;;46.08;25.80;;;;;;;;;;5051059;28;20029;-73
2023/05/06 01:51:52;;;;;;;41.75;25.08;;;;;;;;;;5057647;28;20017;-72
2023/05/06 01:54:18;;;;;;;43.75;25.05;;;;;;;;;;5063380;28;20375;-72
2023/05/06 01:56:45;;;;;;;46.88;24.83;;;;;;;;;;5054553;28;20029;-72
2023/05/06 01:59:11;;;;;;;43.35;24.67;;;;;;;;;;5037638;28;20120;-74
2023/05/06 02:01:36;;;;;;;46.30;24.98;;;;;;;;;;5069195;28;20040;-73
2023/05/06 02:04:01;;;;;;;44.70;26.20;;;;;;;;;;5040545;28;20029;-71
2023/05/06 02:06:26;;;;;;;47.47;26.52;;;;;;;;;;5029732;28;20056;-72
2023/05/06 02:08:52;;;;;;;43.65;27.60;;;;;;;;;;5037254;28;20032;-72
2023/05/06 02:11:19;;;;;;;46.00;27.45;;;;;;;;;;5054341;28;20028;-72
2023/05/06 02:13:44;;;;;;;42.85;26.75;;;;;;;;;;5034317;28;20109;-72
2023/05/06 02:16:10;;;;;;;45.55;27.13;;;;;;;;;;5029732;28;20109;-71
2023/05/06 02:18:37;;;;;;;45.35;27.13;;;;;;;;;;5077902;28;20029;-72
2023/05/06 02:21:02;;;;;;;42.22;27.30;;;;;;;;;;5041037;28;20612;-72
2023/05/06 02:23:28;;;;;;;47.95;29.13;;;;;;;;;;5032527;28;20017;-72
2023/05/06 02:25:56;;;;;;;46.47;30.00;;;;;;;;;;5075079;28;20389;-72
2023/05/06 02:28:22;;;;;;;42.28;28.70;;;;;;;;;;5038059;28;20140;-72
2023/05/06 02:30:47;;;;;;;40.70;27.17;;;;;;;;;;5073223;28;20041;-71
2023/05/06 02:33:12;;;;;;;46.53;30.25;;;;;;;;;;5052225;28;20044;-71
2023/05/06 02:35:38;;;;;;;51.03;29.63;;;;;;;;;;5061452;28;20100;-72
2023/05/06 02:38:05;;;;;;;45.60;29.20;;;;;;;;;;5039839;28;20079;-71
2023/05/06 02:40:30;;;;;;;49.83;29.98;;;;;;;;;;5051685;28;20615;-72
2023/05/06 02:42:55;;;;;;;45.20;28.45;;;;;;;;;;5048145;28;20044;-71
2023/05/06 02:45:21;;;;;;;54.83;30.65;;;;;;;;;;5050223;28;20049;-72
2023/05/06 02:47:49;;;;;;;51.53;31.20;;;;;;;;;;5077995;28;20057;-72
2023/05/06 02:50:15;;;;;;;53.50;33.22;;;;;;;;;;5057792;28;20449;-71
2023/05/06 02:52:41;;;;;;;56.78;33.67;;;;;;;;;;5054979;28;20353;-72
2023/05/06 02:55:07;;;;;;;72.63;41.38;;;;;;;;;;5035701;28;20030;-71
2023/05/06 02:57:32;;;;;;;66.80;40.17;;;;;;;;;;5045613;28;20028;-72
2023/05/06 02:59:57;;;;;;;72.78;41.45;;;;;;;;;;5047829;28;20492;-72
2023/05/06 03:02:25;;;;;;;74.45;41.85;;;;;;;;;;5052928;28;20037;-73
2023/05/06 03:04:50;;;;;;;77.47;43.28;;;;;;;;;;5058597;28;20040;-72
2023/05/06 03:07:16;;;;;;;75.13;43.88;;;;;;;;;;5054288;28;20037;-72
2023/05/06 03:09:41;;;;;;;74.47;42.63;;;;;;;;;;5038201;28;20049;-72
2023/05/06 03:12:06;;;;;;;70.60;42.28;;;;;;;;;;5061820;28;20030;-72
2023/05/06 03:14:34;;;;;;;61.22;38.63;;;;;;;;;;5076046;28;20037;-72
2023/05/06 03:16:59;;;;;;;64.00;40.17;;;;;;;;;;5029876;28;20044;-72
2023/05/06 03:19:26;;;;;;;68.32;43.55;;;;;;;;;;5062248;28;20057;-73
2023/05/06 03:21:52;;;;;;;81.80;45.33;;;;;;;;;;5055730;28;20422;-73
2023/05/06 03:24:17;;;;;;;78.22;44.17;;;;;;;;;;5062420;28;20041;-74
2023/05/06 03:26:42;;;;;;;79.20;45.22;;;;;;;;;;5028595;28;20030;-73
2023/05/06 03:29:07;;;;;;;81.13;45.65;;;;;;;;;;5031108;28;20541;-73
2023/05/06 03:31:33;;;;;;;79.70;43.05;;;;;;;;;;5060125;28;20036;-73
2023/05/06 03:34:00;;;;;;;74.68;40.45;;;;;;;;;;5032006;28;20033;-73
2023/05/06 03:36:26;;;;;;;74.05;42.10;;;;;;;;;;5030256;28;20105;-73
2023/05/06 03:38:54;;;;;;;67.22;40.65;;;;;;;;;;5031940;28;20151;-73
2023/05/06 03:41:20;;;;;;;71.63;41.50;;;;;;;;;;5030435;28;20045;-72
2023/05/06 03:43:45;;;;;;;72.30;40.17;;;;;;;;;;5034905;28;20452;-73
2023/05/06 03:46:10;;;;;;;66.97;40.08;;;;;;;;;;5036663;28;20030;-73
2023/05/06 03:48:36;;;;;;;75.47;43.95;;;;;;;;;;5064445;28;20038;-72
2023/05/06 03:51:02;;;;;;;67.32;41.88;;;;;;;;;;5065064;28;20125;-72
2023/05/06 03:53:29;;;;;;;68.70;43.38;;;;;;;;;;5032527;28;20375;-72
2023/05/06 03:55:54;;;;;;;74.82;44.92;;;;;;;;;;5067521;28;20087;-72
2023/05/06 03:58:20;;;;;;;69.57;44.53;;;;;;;;;;5057831;28;20121;-72
2023/05/06 04:00:47;;;;;;;76.93;44.33;;;;;;;;;;5026319;28;20045;-74
2023/05/06 04:03:13;;;;;;;82.03;48.50;;;;;;;;;;5025836;28;20040;-73
2023/05/06 04:05:38;;;;;;;84.30;49.60;;;;;;;;;;5028099;28;20030;-73
2023/05/06 04:08:03;;;;;;;86.70;53.70;;;;;;;;;;5030042;28;20056;-72
2023/05/06 04:10:28;;;;;;;83.45;52.20;;;;;;;;;;5025441;28;20083;-74
2023/05/06 04:12:58;;;;;;;89.05;56.95;;;;;;;;;;5057057;28;20037;-74
2023/05/06 04:15:23;;;;;;;92.90;59.25;;;;;;;;;;5028789;28;20037;-73
2023/05/06 04:17:48;;;;;;;97.13;62.40;;;;;;;;;;5027472;28;20048;-74
2023/05/06 04:20:16;;;;;;;95.18;61.85;;;;;;;;;;5032182;28;20048;-72
2023/05/06 04:22:41;;;;;;;100.78;64.55;;;;;;;;;;5063484;28;20401;-74
2023/05/06 04:25:07;;;;;;;105.03;64.72;;;;;;;;;;5028662;28;22655;-73
2023/05/06 04:27:34;;;;;;;106.60;62.65;;;;;;;;;;5024434;28;20125;-75
2023/05/06 04:30:00;;;;;;;102.28;60.92;;;;;;;;;;5027231;28;20199;-74
2023/05/06 04:32:25;;;;;;;108.25;64.30;;;;;;;;;;5027451;28;20413;-73
2023/05/06 04:34:51;;;;;;;110.18;69.80;;;;;;;;;;5064305;28;20030;-74
2023/05/06 04:37:18;;;;;;;107.32;66.20;;;;;;;;;;5033048;28;20032;-74
2023/05/06 04:39:46;;;;;;;99.28;62.03;;;;;;;;;;5032230;28;20057;-73
2023/05/06 04:42:11;;;;;;;101.20;61.92;;;;;;;;;;5035322;28;20091;-73
2023/05/06 04:44:37;;;;;;;94.53;59.80;;;;;;;;;;5031551;28;20446;-73
2023/05/06 04:47:02;;;;;;;94.75;61.30;;;;;;;;;;5032318;28;20083;-73
2023/05/06 04:49:30;;;;;;;87.70;55.97;;;;;;;;;;5033710;28;20037;-75
2023/05/06 04:51:55;;;;;;;79.80;50.67;;;;;;;;;;5034146;28;20485;-73
2023/05/06 04:54:21;;;;;;;83.13;52.22;;;;;;;;;;5032430;28;20063;-74
2023/05/06 04:56:49;;;;;;;91.55;56.53;;;;;;;;;;5033578;28;20508;-73
2023/05/06 04:59:19;;;;;;;77.30;49.47;;;;;;;;;;5045023;28;20045;-74
2023/05/06 05:01:44;;;;;;;71.43;46.50;;;;;;;;;;5036655;28;20034;-74
2023/05/06 05:04:10;;;;;;;66.13;42.63;;;;;;;;;;5033658;28;20034;-73
2023/05/06 05:06:35;;;;;;;64.68;42.38;;;;;;;;;;5069359;28;20041;-74
2023/05/06 05:09:00;;;;;;;63.85;42.75;;;;;;;;;;5061474;28;20036;-73
2023/05/06 05:11:30;;;;;;;67.13;42.92;;;;;;;;;;5029788;28;20086;-76
2023/05/06 05:13:56;;;;;;;64.72;42.75;;;;;;;;;;5025757;28;20052;-72
2023/05/06 05:16:21;;;;;;;61.30;39.88;;;;;;;;;;5021592;28;20180;-75
2023/05/06 05:18:46;;;;;;;65.53;42.53;;;;;;;;;;5025521;28;20037;-75
2023/05/06 05:21:12;;;;;;;66.47;43.55;;;;;;;;;;5043625;28;20034;-75
2023/05/06 05:23:37;;;;;;;64.60;42.97;;;;;;;;;;5009995;28;20041;-74
2023/05/06 05:26:02;;;;;;;64.88;41.70;;;;;;;;;;5008139;28;20395;-74
2023/05/06 05:28:27;;;;;;;67.28;42.38;;;;;;;;;;5009502;28;20139;-74
2023/05/06 05:30:53;;;;;;;60.20;41.30;;;;;;;;;;5039520;28;20864;-72
2023/05/06 05:33:20;;;;;;;60.63;39.90;;;;;;;;;;5009889;28;20032;-73
2023/05/06 05:35:46;;;;;;;64.38;40.17;;;;;;;;;;5010833;28;20033;-73
2023/05/06 05:38:12;;;;;;;56.13;39.35;;;;;;;;;;5011420;28;20033;-74
2023/05/06 05:40:38;;;;;;;60.30;39.58;;;;;;;;;;5010342;28;20045;-74
2023/05/06 05:43:05;;;;;;;57.53;40.88;;;;;;;;;;5010089;28;20374;-75
2023/05/06 05:45:33;;;;;;;59.65;40.65;;;;;;;;;;5009896;28;20130;-75
2023/05/06 05:47:58;;;;;;;60.00;40.55;;;;;;;;;;5039962;28;20859;-75
2023/05/06 05:50:25;;;;;;;63.85;40.38;;;;;;;;;;5006829;28;20033;-74
2023/05/06 05:52:50;;;;;;;56.60;39.78;;;;;;;;;;5004874;28;20128;-74
2023/05/06 05:55:15;;;;;;;59.05;37.78;;;;;;;;;;5008929;28;20052;-75
2023/05/06 05:57:40;;;;;;;62.38;39.47;;;;;;;;;;5008680;28;20049;-74
2023/05/06 06:00:06;;;;;;;54.75;38.20;;;;;;;;;;5015388;28;20055;-74
2023/05/06 06:02:34;;;;;;;61.80;40.08;;;;;;;;;;5010801;28;20037;-77
2023/05/06 06:05:02;;;;;;;58.47;38.53;;;;;;;;;;5022625;28;20044;-75
2023/05/06 06:07:27;;;;;;;63.15;39.40;;;;;;;;;;5042690;28;20052;-79
2023/05/06 06:09:55;;;;;;;59.45;39.22;;;;;;;;;;5038360;28;20030;-79
2023/05/06 06:12:21;;;;;;;56.53;38.67;;;;;;;;;;5022955;28;20041;-75
2023/05/06 06:14:49;;;;;;;57.63;37.67;;;;;;;;;;5013503;28;20048;-75
2023/05/06 06:17:16;;;;;;;58.08;37.17;;;;;;;;;;5010451;28;20044;-76
2023/05/06 06:19:44;;;;;;;60.08;36.40;;;;;;;;;;5010432;28;20037;-75
2023/05/06 06:22:11;;;;;;;55.65;33.42;;;;;;;;;;5010622;28;20060;-75
2023/05/06 06:24:39;;;;;;;49.35;32.20;;;;;;;;;;5008287;28;20048;-73
2023/05/06 06:27:05;;;;;;;47.20;29.10;;;;;;;;;;5022363;28;20041;-75
2023/05/06 06:29:30;;;;;;;43.45;27.13;;;;;;;;;;5040026;28;20068;-75
2023/05/06 06:31:56;;;;;;;40.40;28.48;;;;;;;;;;5008819;28;20048;-75
2023/05/06 06:34:22;;;;;;;40.33;26.02;;;;;;;;;;5011054;28;20033;-75
2023/05/06 06:36:47;;;;;;;39.30;24.33;;;;;;;;;;5009028;28;20864;-74
2023/05/06 06:39:15;;;;;;;31.42;23.13;;;;;;;;;;5039275;28;20060;-77
2023/05/06 06:41:40;;;;;;;32.28;21.85;;;;;;;;;;5037004;28;20091;-82
2023/05/06 06:44:05;;;;;;;31.13;19.10;;;;;;;;;;5036581;28;20035;-72
2023/05/06 06:46:31;;;;;;;28.98;19.20;;;;;;;;;;5040284;28;20044;-73
2023/05/06 06:48:56;;;;;;;31.52;18.73;;;;;;;;;;5038167;28;20043;-73
2023/05/06 06:51:24;;;;;;;28.00;21.17;;;;;;;;;;5008374;28;20080;-74
2023/05/06 06:53:50;;;;;;;32.78;20.70;;;;;;;;;;5007597;28;20049;-65
2023/05/06 06:56:16;;;;;;;29.40;19.10;;;;;;;;;;5008072;28;20452;-67
2023/05/06 06:58:41;;;;;;;30.52;19.52;;;;;;;;;;5007022;28;20117;-67
2023/05/06 07:01:09;;;;;;;31.95;21.33;;;;;;;;;;5007697;28;20149;-66
2023/05/06 07:03:34;;;;;;;34.13;24.25;;;;;;;;;;4987194;28;20593;-67
2023/05/06 07:06:00;;;;;;;36.17;27.23;;;;;;;;;;4987023;28;20034;-67
2023/05/06 07:08:25;;;;;;;39.00;27.63;;;;;;;;;;4987463;28;20041;-66
2023/05/06 07:10:50;;;;;;;34.88;24.23;;;;;;;;;;4990516;28;20038;-66
2023/05/06 07:13:15;;;;;;;31.70;23.75;;;;;;;;;;4987975;28;20555;-66
2023/05/06 07:15:41;;;;;;;37.60;22.08;;;;;;;;;;4986314;28;20042;-65
2023/05/06 07:18:08;;;;;;;30.10;19.23;;;;;;;;;;5003318;28;20055;-64
2023/05/06 07:20:33;;;;;;;38.28;25.55;;;;;;;;;;5005149;28;20045;-65
2023/05/06 07:22:59;;;;;;;39.90;28.52;;;;;;;;;;5003877;28;20135;-66
2023/05/06 07:25:26;;;;;;;38.05;29.58;;;;;;;;;;5034423;28;20903;-63
2023/05/06 07:27:51;;;;;;;39.17;30.83;;;;;;;;;;5007169;28;20057;-63
2023/05/06 07:30:19;;;;;;;45.20;30.48;;;;;;;;;;5008269;28;22639;-64
2023/05/06 07:32:45;;;;;;;38.60;28.52;;;;;;;;;;5009837;28;20599;-66
2023/05/06 07:35:10;;;;;;;34.92;26.27;;;;;;;;;;5008268;28;20038;-66
2023/05/06 07:37:35;;;;;;;33.35;24.98;;;;;;;;;;5040016;28;20526;-64
2023/05/06 07:40:01;;;;;;;36.05;27.20;;;;;;;;;;5039563;28;20053;-64
2023/05/06 07:42:26;;;;;;;37.45;28.42;;;;;;;;;;5009534;28;20041;-64
2023/05/06 07:44:51;;;;;;;36.17;26.52;;;;;;;;;;5007367;28;20084;-64
2023/05/06 07:47:24;;;;;;;34.63;27.40;;;;;;;;;;5012351;28;20040;-65
2023/05/06 07:49:50;;;;;;;39.10;28.75;;;;;;;;;;5007916;28;20047;-66
2023/05/06 07:52:15;;;;;;;40.08;26.58;;;;;;;;;;5010051;28;20045;-66
2023/05/06 07:54:40;;;;;;;35.88;25.35;;;;;;;;;;5010060;28;20124;-66
2023/05/06 07:57:05;;;;;;;34.97;25.38;;;;;;;;;;5009452;28;20064;-66
2023/05/06 07:59:31;;;;;;;28.70;20.45;;;;;;;;;;5040702;28;20041;-65
2023/05/06 08:01:56;;;;;;;34.03;21.73;;;;;;;;;;5008118;28;20064;-65
2023/05/06 08:04:23;;;;;;;34.15;21.73;;;;;;;;;;5040685;28;20502;-64
2023/05/06 08:06:52;;;;;;;28.52;20.23;;;;;;;;;;5008116;28;20029;-66
2023/05/06 08:09:20;;;;;;;30.35;19.92;;;;;;;;;;5008864;28;20077;-67
2023/05/06 08:11:48;;;;;;;32.00;19.17;;;;;;;;;;5040201;28;20072;-67
2023/05/06 08:14:13;;;;;;;31.38;20.88;;;;;;;;;;5036850;28;20791;-66
2023/05/06 08:16:38;;;;;;;30.10;18.50;;;;;;;;;;5007301;28;20072;-66
2023/05/06 08:19:03;;;;;;;22.27;12.32;;;;;;;;;;5030135;28;20033;-68
2023/05/06 08:21:29;;;;;;;27.42;16.98;;;;;;;;;;4990679;28;20030;-64
2023/05/06 08:23:55;;;;;;;24.15;12.98;;;;;;;;;;4991104;28;20038;-65
2023/05/06 08:26:22;;;;;;;25.17;13.00;;;;;;;;;;4988004;28;20044;-65
2023/05/06 08:28:48;;;;;;;21.63;12.98;;;;;;;;;;4990104;28;20038;-65
2023/05/06 08:31:13;;;;;;;19.10;11.13;;;;;;;;;;5021371;28;20034;-66
2023/05/06 08:33:41;;;;;;;22.33;11.23;;;;;;;;;;4989272;28;20426;-64
2023/05/06 08:36:08;;;;;;;19.60;10.73;;;;;;;;;;4989582;28;20038;-65
2023/05/06 08:38:33;;;;;;;18.77;10.63;;;;;;;;;;4989398;28;20061;-65
2023/05/06 08:41:00;;;;;;;20.40;10.15;;;;;;;;;;4994632;28;20131;-66
2023/05/06 08:43:26;;;;;;;19.88;10.75;;;;;;;;;;4989377;28;20050;-67
2023/05/06 08:45:51;;;;;;;22.30;11.68;;;;;;;;;;4989073;28;20064;-68
2023/05/06 08:48:19;;;;;;;19.48;11.07;;;;;;;;;;4993795;28;21822;-66
2023/05/06 08:50:47;;;;;;;20.83;10.43;;;;;;;;;;4985927;28;20041;-70
2023/05/06 08:53:13;;;;;;;20.83;11.50;;;;;;;;;;4987700;28;20034;-67
2023/05/06 08:55:41;;;;;;;21.63;12.52;;;;;;;;;;4984398;28;20067;-66
2023/05/06 08:58:07;;;;;;;27.35;14.95;;;;;;;;;;4988467;28;20045;-67
2023/05/06 09:00:32;;;;;;;23.83;13.05;;;;;;;;;;4970280;28;20045;-65
2023/05/06 09:02:58;;;;;;;21.27;11.98;;;;;;;;;;4987197;28;20050;-64
2023/05/06 09:05:27;;;;;;;25.17;11.10;;;;;;;;;;4987446;28;20041;-65
2023/05/06 09:07:52;;;;;;;26.58;14.10;;;;;;;;;;4987519;28;20426;-65
2023/05/06 09:10:18;;;;;;;24.05;13.98;;;;;;;;;;5018490;28;20044;-65
2023/05/06 09:12:43;;;;;;;25.00;14.45;;;;;;;;;;4986477;28;20037;-65
2023/05/06 09:15:08;;;;;;;23.73;13.02;;;;;;;;;;5017980;28;20060;-66
2023/05/06 09:17:34;;;;;;;20.23;11.75;;;;;;;;;;4986663;28;20087;-64
2023/05/06 09:20:00;;;;;;;22.45;11.65;;;;;;;;;;4993124;28;20092;-66
2023/05/06 09:22:26;;;;;;;27.13;13.45;;;;;;;;;;5017484;28;20117;-65
2023/05/06 09:24:57;;;;;;;22.30;13.07;;;;;;;;;;5018264;28;20072;-65
2023/05/06 09:27:23;;;;;;;20.30;10.38;;;;;;;;;;5008900;28;20044;-64
2023/05/06 09:30:04;;;;;;;24.35;12.05;;;;;;;;;;5008806;28;20188;-64
2023/05/06 09:32:29;;;;;;;25.83;15.05;;;;;;;;;;4986140;28;20154;-64
2023/05/06 09:34:55;;;;;;;24.00;13.95;;;;;;;;;;4987642;28;20034;-65
2023/05/06 09:37:20;;;;;;;24.58;13.95;;;;;;;;;;4986930;28;20041;-65
2023/05/06 09:39:46;;;;;;;25.20;14.63;;;;;;;;;;4986402;28;21104;-65
2023/05/06 09:42:11;;;;;;;24.45;12.95;;;;;;;;;;4982688;28;20037;-67
2023/05/06 09:44:36;;;;;;;21.60;11.43;;;;;;;;;;4981040;28;20041;-68
2023/05/06 09:47:02;;;;;;;21.85;12.43;;;;;;;;;;4987617;28;20649;-68
2023/05/06 09:49:28;;;;;;;23.10;9.90;;;;;;;;;;4982941;28;20030;-66
2023/05/06 09:51:54;;;;;;;21.83;11.90;;;;;;;;;;4984875;28;20096;-65
2023/05/06 09:54:19;;;;;;;21.25;11.88;;;;;;;;;;5017669;28;20132;-66
2023/05/06 09:56:46;;;;;;;23.65;13.40;;;;;;;;;;4988072;28;20041;-65
2023/05/06 09:59:12;;;;;;;26.23;15.05;;;;;;;;;;4987526;28;20050;-65
2023/05/06 10:01:40;;;;;;;24.88;15.60;;;;;;;;;;4987379;28;20594;-65
2023/05/06 10:04:09;;;;;;;27.42;16.80;;;;;;;;;;5018393;28;20139;-65
2023/05/06 10:06:35;;;;;;;26.90;15.07;;;;;;;;;;5017486;28;20065;-67
2023/05/06 10:09:01;;;;;;;26.15;17.00;;;;;;;;;;4987794;28;20034;-66
2023/05/06 10:11:28;;;;;;;29.80;16.95;;;;;;;;;;4988190;28;20080;-65
2023/05/06 10:13:53;;;;;;;21.80;13.70;;;;;;;;;;4988178;28;20041;-67
2023/05/06 10:16:19;;;;;;;19.63;12.23;;;;;;;;;;4986653;28;20053;-66
2023/05/06 10:18:45;;;;;;;21.95;13.77;;;;;;;;;;4987910;28;20057;-66
2023/05/06 10:21:18;;;;;;;28.10;16.92;;;;;;;;;;4990977;28;20052;-66
2023/05/06 10:23:50;;;;;;;22.98;13.73;;;;;;;;;;4986474;28;20529;-66
2023/05/06 10:26:18;;;;;;;25.65;13.85;;;;;;;;;;5005549;28;20214;-67
2023/05/06 10:28:49;;;;;;;23.60;12.88;;;;;;;;;;5015676;28;20033;-66
2023/05/06 10:31:14;;;;;;;27.45;14.38;;;;;;;;;;5006495;28;20170;-66
2023/05/06 10:33:50;;;;;;;26.80;15.50;;;;;;;;;;5007558;28;20619;-66
2023/05/06 10:36:21;;;;;;;25.90;13.32;;;;;;;;;;5036783;28;20042;-66
2023/05/06 10:38:53;;;;;;;24.98;15.95;;;;;;;;;;5038445;28;20479;-66
2023/05/06 10:41:21;;;;;;;27.38;16.38;;;;;;;;;;5019825;28;20044;-65
2023/05/06 10:43:48;;;;;;;25.98;14.07;;;;;;;;;;5037870;28;20033;-66
2023/05/06 10:46:16;;;;;;;23.08;12.88;;;;;;;;;;5004430;28;20053;-66
2023/05/06 10:49:00;;;;;;;25.98;14.90;;;;;;;;;;5016055;28;20111;-66
2023/05/06 10:51:27;;;;;;;28.48;16.25;;;;;;;;;;5002094;28;20065;-66
2023/05/06 10:54:01;;;;;;;24.50;15.38;;;;;;;;;;5004211;28;20038;-66
2023/05/06 10:56:26;;;;;;;26.13;15.82;;;;;;;;;;5003948;28;20658;-66
2023/05/06 10:58:52;;;;;;;29.08;16.33;;;;;;;;;;5004764;28;20034;-65
2023/05/06 11:01:21;;;;;;;28.25;14.98;;;;;;;;;;5024751;28;20048;-68
2023/05/06 11:03:48;;;;;;;21.50;12.77;;;;;;;;;;5003062;28;20541;-65
2023/05/06 11:06:32;;;;;;;24.60;13.13;;;;;;;;;;5006199;28;20164;-68
2023/05/06 11:08:59;;;;;;;19.42;10.18;;;;;;;;;;5025844;28;20851;-68
2023/05/06 11:11:44;;;;;;;19.48;8.73;;;;;;;;;;4979086;28;20634;-68
2023/05/06 11:14:13;;;;;;;17.00;7.70;;;;;;;;;;4988054;28;20037;-66
2023/05/06 11:16:51;;;;;;;16.63;7.22;;;;;;;;;;4988010;28;20041;-67
2023/05/06 11:19:26;;;;;;;15.65;6.50;;;;;;;;;;4989141;28;20697;-67
2023/05/06 11:21:56;;;;;;;19.15;7.72;;;;;;;;;;4988131;28;20073;-68
2023/05/06 11:24:41;;;;;;;15.18;6.85;;;;;;;;;;4987088;28;22242;-66
2023/05/06 11:27:08;;;;;;;13.32;6.85;;;;;;;;;;5006205;28;20048;-67
2023/05/06 11:29:36;;;;;;;17.20;6.65;;;;;;;;;;5006375;28;20037;-66
2023/05/06 11:32:02;;;;;;;16.02;6.35;;;;;;;;;;5008124;28;20034;-66
2023/05/06 11:34:31;;;;;;;14.10;6.50;;;;;;;;;;5019580;28;20041;-66
2023/05/06 11:37:01;;;;;;;16.27;6.38;;;;;;;;;;4987372;28;20060;-67
2023/05/06 11:39:29;;;;;;;19.65;7.85;;;;;;;;;;4987739;28;20132;-66
2023/05/06 11:41:54;;;;;;;16.27;5.82;;;;;;;;;;5004125;28;20105;-67
2023/05/06 11:44:23;;;;;;;16.25;6.20;;;;;;;;;;5006488;28;20048;-67
2023/05/06 11:46:51;;;;;;;16.70;7.10;;;;;;;;;;5025294;28;20065;-66
2023/05/06 11:49:16;;;;;;;12.48;5.32;;;;;;;;;;5006995;28;21079;-67
2023/05/06 11:51:41;;;;;;;15.52;5.40;;;;;;;;;;5006696;28;20048;-67
2023/05/06 11:54:08;;;;;;;16.00;5.75;;;;;;;;;;5007812;28;20073;-66
2023/05/06 11:56:47;;;;;;;14.30;5.63;;;;;;;;;;5008355;28;20033;-66
2023/05/06 11:59:12;;;;;;;14.77;5.57;;;;;;;;;;5010101;28;20509;-65
2023/05/06 12:01:40;;;;;;;18.58;5.50;;;;;;;;;;5003691;28;20132;-66
2023/05/06 12:04:07;;;;;;;15.07;5.90;;;;;;;;;;5006676;28;20395;-67
2023/05/06 12:06:33;;;;;;;14.48;4.68;;;;;;;;;;5006963;28;21053;-67
2023/05/06 12:09:01;;;;;;;12.70;4.82;;;;;;;;;;5008254;28;20029;-67
2023/05/06 12:11:26;;;;;;;12.95;4.55;;;;;;;;;;5036912;28;20033;-67
2023/05/06 12:13:52;;;;;;;15.30;4.90;;;;;;;;;;5007947;28;20041;-67
2023/05/06 12:16:17;;;;;;;13.68;4.70;;;;;;;;;;5022221;28;20033;-66
2023/05/06 12:18:42;;;;;;;15.20;4.55;;;;;;;;;;5035748;28;20676;-67
2023/05/06 12:21:08;;;;;;;14.30;4.47;;;;;;;;;;5011598;28;20153;-67
2023/05/06 12:23:33;;;;;;;14.27;4.82;;;;;;;;;;5037964;28;20033;-67
2023/05/06 12:26:08;;;;;;;13.43;4.72;;;;;;;;;;5012999;28;21282;-67
2023/05/06 12:28:34;;;;;;;13.15;4.30;;;;;;;;;;5036512;28;20601;-66
2023/05/06 12:31:00;;;;;;;16.05;4.40;;;;;;;;;;5008209;28;20038;-67
2023/05/06 12:33:26;;;;;;;15.88;4.50;;;;;;;;;;5009800;28;20096;-66
2023/05/06 12:35:53;;;;;;;13.98;4.47;;;;;;;;;;5007270;28;20032;-67
2023/05/06 12:38:18;;;;;;;16.52;5.10;;;;;;;;;;5008172;28;20049;-66
2023/05/06 12:40:52;;;;;;;13.05;4.60;;;;;;;;;;5008358;28;20049;-66
2023/05/06 12:43:19;;;;;;;17.80;5.22;;;;;;;;;;5007668;28;20034;-67
2023/05/06 12:46:00;;;;;;;12.45;4.20;;;;;;;;;;5007878;28;20060;-67
2023/05/06 12:48:26;;;;;;;16.33;5.18;;;;;;;;;;5008353;28;20053;-66
2023/05/06 12:50:53;;;;;;;16.63;5.00;;;;;;;;;;5007842;28;22166;-67
2023/05/06 12:53:30;;;;;;;11.52;5.00;;;;;;;;;;5013932;28;20041;-67
2023/05/06 12:55:55;;;;;;;14.25;5.22;;;;;;;;;;5007969;28;20046;-66
2023/05/06 12:58:20;;;;;;;14.52;5.10;;;;;;;;;;5007624;28;20084;-67
2023/05/06 13:00:46;;;;;;;15.18;5.55;;;;;;;;;;5007789;28;20119;-67
2023/05/06 13:03:14;;;;;;;12.63;4.50;;;;;;;;;;5006396;28;20048;-66
2023/05/06 13:05:42;;;;;;;13.48;5.03;;;;;;;;;;5005481;28;20124;-68
2023/05/06 13:08:07;;;;;;;15.20;3.67;;;;;;;;;;5035840;28;20041;-67
2023/05/06 13:10:32;;;;;;;12.27;3.20;;;;;;;;;;5035786;28;20668;-66
2023/05/06 13:12:57;;;;;;;9.63;3.42;;;;;;;;;;5034423;28;20419;-66
2023/05/06 13:15:24;;;;;;;13.07;3.72;;;;;;;;;;5004409;28;20041;-65
2023/05/06 13:17:49;;;;;;;12.35;3.78;;;;;;;;;;5035408;28;20037;-66
2023/05/06 13:20:15;;;;;;;12.63;3.80;;;;;;;;;;5003849;28;20075;-68
2023/05/06 13:22:41;;;;;;;14.32;3.50;;;;;;;;;;5010615;28;20040;-68
2023/05/06 13:25:10;;;;;;;13.50;3.60;;;;;;;;;;5003950;28;21022;-68
2023/05/06 13:27:35;;;;;;;12.32;3.55;;;;;;;;;;5000314;28;20175;-68
2023/05/06 13:30:01;;;;;;;12.10;3.65;;;;;;;;;;5004756;28;20525;-66
2023/05/06 13:32:26;;;;;;;14.63;4.60;;;;;;;;;;5004216;28;20037;-68
2023/05/06 13:34:51;;;;;;;15.90;5.00;;;;;;;;;;5004788;28;20052;-66
2023/05/06 13:37:16;;;;;;;12.30;4.95;;;;;;;;;;5005011;28;20077;-67
2023/05/06 13:39:42;;;;;;;15.55;5.05;;;;;;;;;;5004046;28;21031;-65
2023/05/06 13:42:07;;;;;;;16.75;5.22;;;;;;;;;;5012331;28;20163;-67
2023/05/06 13:44:32;;;;;;;17.92;5.43;;;;;;;;;;5004707;28;20065;-67
2023/05/06 13:46:57;;;;;;;15.85;5.07;;;;;;;;;;5003265;28;20091;-66
2023/05/06 13:49:23;;;;;;;16.23;4.45;;;;;;;;;;5035253;28;20478;-66
2023/05/06 13:51:48;;;;;;;12.85;4.70;;;;;;;;;;5004515;28;20857;-67
2023/05/06 13:54:14;;;;;;;12.52;4.30;;;;;;;;;;5003904;28;20087;-66
2023/05/06 13:56:42;;;;;;;13.77;4.40;;;;;;;;;;5010012;28;20041;-68
2023/05/06 13:59:08;;;;;;;15.10;4.10;;;;;;;;;;5003258;28;20045;-65
2023/05/06 14:01:34;;;;;;;13.25;4.35;;;;;;;;;;5033935;28;20036;-67
2023/05/06 14:03:59;;;;;;;12.27;4.20;;;;;;;;;;5004206;28;20034;-67
2023/05/06 14:06:26;;;;;;;15.05;4.72;;;;;;;;;;5003985;28;20083;-67
2023/05/06 14:08:54;;;;;;;14.48;4.25;;;;;;;;;;5003539;28;20042;-66
2023/05/06 14:11:20;;;;;;;19.02;4.55;;;;;;;;;;5002904;28;20056;-66
2023/05/06 14:13:47;;;;;;;12.27;3.53;;;;;;;;;;5003308;28;20111;-67
2023/05/06 14:16:12;;;;;;;12.63;3.50;;;;;;;;;;5009449;28;20845;-66